createdAt,value
2023-04-22T00:02:21.142Z,45.75
2023-04-22T00:04:50.153Z,45.66
2023-04-22T00:07:18.712Z,45.35
2023-04-22T00:09:46.923Z,45.54
2023-04-22T00:12:14.997Z,45.75
2023-04-22T00:14:43.306Z,45.68
2023-04-22T00:17:13.366Z,45.36
2023-04-22T00:19:42.743Z,45.75
2023-04-22T00:22:11.285Z,45.54
2023-04-22T00:24:39.685Z,45.53
2023-04-22T00:27:08.184Z,45.63
2023-04-22T00:29:39.838Z,45.66
2023-04-22T00:32:08.525Z,45.74
2023-04-22T00:34:40.305Z,45.74
2023-04-22T00:37:08.268Z,45.42
2023-04-22T00:39:39.407Z,45.71
2023-04-22T00:42:08.055Z,45.81
2023-04-22T00:44:37.184Z,45.58
2023-04-22T00:47:05.796Z,45.42
2023-04-22T00:49:33.860Z,45.30
2023-04-22T00:52:03.244Z,45.36
2023-04-22T00:54:35.518Z,45.65
2023-04-22T00:57:04.182Z,45.30
2023-04-22T00:59:32.195Z,45.20
2023-04-22T01:02:01.626Z,45.65
2023-04-22T01:04:29.898Z,45.71
2023-04-22T01:06:58.804Z,45.53
2023-04-22T01:09:31.680Z,45.37
2023-04-22T01:11:59.704Z,45.41
2023-04-22T01:14:28.801Z,45.71
2023-04-22T01:16:57.880Z,45.42
2023-04-22T01:19:26.380Z,45.68
2023-04-22T01:21:55.885Z,45.53
2023-04-22T01:24:26.711Z,45.31
2023-04-22T01:26:55.438Z,45.57
2023-04-22T01:29:23.809Z,45.69
2023-04-22T01:31:52.478Z,45.47
2023-04-22T01:34:20.555Z,45.78
2023-04-22T01:36:48.616Z,45.80
2023-04-22T01:39:16.714Z,45.54
2023-04-22T01:41:46.539Z,45.68
2023-04-22T01:44:18.006Z,45.72
2023-04-22T01:46:47.175Z,45.80
2023-04-22T01:49:15.162Z,45.96
2023-04-22T01:51:43.504Z,45.60
2023-04-22T01:54:11.508Z,46.03
2023-04-22T01:56:40.584Z,45.79
2023-04-22T01:59:10.109Z,46.24
2023-04-22T02:01:38.038Z,46.19
2023-04-22T02:04:06.045Z,46.16
2023-04-22T02:06:34.030Z,46.02
2023-04-22T02:09:02.284Z,46.42
2023-04-22T02:11:30.325Z,46.13
2023-04-22T02:13:58.675Z,46.37
2023-04-22T02:16:28.258Z,46.57
2023-04-22T02:18:56.428Z,46.07
2023-04-22T02:21:24.537Z,46.92
2023-04-22T02:23:52.511Z,46.32
2023-04-22T02:26:20.822Z,46.19
2023-04-22T02:28:48.981Z,46.53
2023-04-22T02:31:17.026Z,46.72
2023-04-22T02:33:46.355Z,46.98
2023-04-22T02:36:14.538Z,47.03
2023-04-22T02:38:42.498Z,46.82
2023-04-22T02:41:10.617Z,46.90
2023-04-22T02:43:38.743Z,46.99
2023-04-22T02:46:06.982Z,47.20
2023-04-22T02:48:34.928Z,47.10
2023-04-22T02:51:04.527Z,47.19
2023-04-22T02:53:32.472Z,47.04
2023-04-22T02:56:00.671Z,47.48
2023-04-22T02:58:28.767Z,47.75
2023-04-22T03:00:58.135Z,47.94
2023-04-22T03:03:26.667Z,47.79
2023-04-22T03:05:57.787Z,47.86
2023-04-22T03:08:27.158Z,47.85
2023-04-22T03:10:55.098Z,47.73
2023-04-22T03:13:23.049Z,47.96
2023-04-22T03:15:51.310Z,47.87
2023-04-22T03:18:19.328Z,47.79
2023-04-22T03:20:47.290Z,47.99
2023-04-22T03:23:15.368Z,48.32
2023-04-22T03:25:47.539Z,48.27
2023-04-22T03:28:15.616Z,48.20
2023-04-22T03:30:43.575Z,48.20
2023-04-22T03:33:12.972Z,48.28
2023-04-22T03:35:44.035Z,48.39
2023-04-22T03:38:13.623Z,48.80
2023-04-22T03:40:42.129Z,48.93
2023-04-22T03:43:11.936Z,48.78
2023-04-22T03:45:40.231Z,48.91
2023-04-22T03:48:08.237Z,48.79
2023-04-22T03:50:36.768Z,48.76
2023-04-22T03:53:04.900Z,48.84
2023-04-22T03:55:32.976Z,49.01
2023-04-22T03:58:01.016Z,49.10
2023-04-22T04:00:30.534Z,48.81
2023-04-22T04:02:59.104Z,48.80
2023-04-22T04:05:29.686Z,48.97
2023-04-22T04:07:59.914Z,49.30
2023-04-22T04:10:28.455Z,49.60
2023-04-22T04:12:59.295Z,49.92
2023-04-22T04:15:27.342Z,50.02
2023-04-22T04:17:56.898Z,50.03
2023-04-22T04:20:25.180Z,49.73
2023-04-22T04:22:53.481Z,49.96
2023-04-22T04:25:22.577Z,50.01
2023-04-22T04:27:51.884Z,50.03
2023-04-22T04:30:23.446Z,50.03
2023-04-22T04:32:51.508Z,50.20
2023-04-22T04:35:24.388Z,50.23
2023-04-22T04:37:53.844Z,50.11
2023-04-22T04:40:29.439Z,50.28
2023-04-22T04:42:58.066Z,50.33
2023-04-22T04:45:26.339Z,50.31
2023-04-22T04:47:54.936Z,50.20
2023-04-22T04:50:28.190Z,50.36
2023-04-22T04:52:56.611Z,50.63
2023-04-22T04:55:24.626Z,50.56
2023-04-22T04:57:52.607Z,50.40
2023-04-22T05:00:20.892Z,50.63
2023-04-22T05:02:49.156Z,50.25
2023-04-22T05:05:17.675Z,50.27
2023-04-22T05:07:47.265Z,50.38
2023-04-22T05:10:15.685Z,50.41
2023-04-22T05:12:46.370Z,50.20
2023-04-22T05:15:14.679Z,50.53
2023-04-22T05:17:42.704Z,50.60
2023-04-22T05:20:11.665Z,50.76
2023-04-22T05:22:41.479Z,50.16
2023-04-22T05:25:12.178Z,50.13
2023-04-22T05:27:40.316Z,50.00
2023-04-22T05:30:13.201Z,49.99
2023-04-22T05:32:41.320Z,49.71
2023-04-22T05:35:11.220Z,49.41
2023-04-22T05:37:40.245Z,49.40
2023-04-22T05:40:11.115Z,49.34
2023-04-22T05:42:39.078Z,49.22
2023-04-22T05:45:08.340Z,49.01
2023-04-22T05:47:36.484Z,49.21
2023-04-22T05:50:06.268Z,48.97
2023-04-22T05:52:40.429Z,48.91
2023-04-22T05:55:11.132Z,48.78
2023-04-22T05:57:39.637Z,48.56
2023-04-22T06:00:11.507Z,48.33
2023-04-22T06:02:39.898Z,48.60
2023-04-22T06:05:09.330Z,48.58
2023-04-22T06:07:41.314Z,48.43
2023-04-22T06:10:11.535Z,47.68
2023-04-22T06:12:39.484Z,47.87
2023-04-22T06:15:08.501Z,47.54
2023-04-22T06:17:39.560Z,47.35
2023-04-22T06:20:17.139Z,47.29
2023-04-22T06:22:45.339Z,46.72
2023-04-22T06:25:16.794Z,46.63
2023-04-22T06:27:48.095Z,46.89
2023-04-22T06:30:16.612Z,46.72
2023-04-22T06:32:45.148Z,46.79
2023-04-22T06:35:16.466Z,46.46
2023-04-22T06:37:44.737Z,46.61
2023-04-22T06:40:18.071Z,46.31
2023-04-22T06:42:46.053Z,46.43
2023-04-22T06:45:14.341Z,46.24
2023-04-22T06:47:44.619Z,45.95
2023-04-22T06:50:13.309Z,45.96
2023-04-22T06:52:42.198Z,45.67
2023-04-22T06:55:11.734Z,45.70
2023-04-22T06:57:41.770Z,45.36
2023-04-22T07:00:10.614Z,44.31
2023-04-22T07:02:48.023Z,40.47
2023-04-22T07:05:17.676Z,36.91
2023-04-22T07:07:49.544Z,33.68
2023-04-22T07:10:21.058Z,33.19
2023-04-22T07:12:52.706Z,32.11
2023-04-22T07:15:20.891Z,31.61
2023-04-22T07:17:49.000Z,30.99
2023-04-22T07:20:17.164Z,29.71
2023-04-22T07:22:47.309Z,28.67
2023-04-22T07:25:15.372Z,27.46
2023-04-22T07:27:43.444Z,27.12
2023-04-22T07:30:14.290Z,27.01
2023-04-22T07:32:42.344Z,26.45
2023-04-22T07:35:13.444Z,26.44
2023-04-22T07:37:41.437Z,25.53
2023-04-22T07:40:12.098Z,26.04
2023-04-22T07:42:40.715Z,25.10
2023-04-22T07:45:09.567Z,25.21
2023-04-22T07:47:39.087Z,25.22
2023-04-22T07:50:08.323Z,24.69
2023-04-22T07:52:36.408Z,24.48
2023-04-22T07:55:04.476Z,23.87
2023-04-22T07:57:36.332Z,23.82
2023-04-22T08:00:05.231Z,23.27
2023-04-22T08:02:33.414Z,22.67
2023-04-22T08:05:03.140Z,23.81
2023-04-22T08:07:33.512Z,24.22
2023-04-22T08:10:04.958Z,23.98
2023-04-22T08:12:33.064Z,23.91
2023-04-22T08:15:04.098Z,23.95
2023-04-22T08:17:32.100Z,23.80
2023-04-22T08:20:00.078Z,23.84
2023-04-22T08:22:30.880Z,24.22
2023-04-22T08:24:59.644Z,23.75
2023-04-22T08:27:27.637Z,23.60
2023-04-22T08:29:56.084Z,23.14
2023-04-22T08:32:26.594Z,23.04
2023-04-22T08:35:01.395Z,23.39
2023-04-22T08:37:33.949Z,22.90
2023-04-22T08:40:02.007Z,22.76
2023-04-22T08:42:31.972Z,22.28
2023-04-22T08:45:00.313Z,22.79
2023-04-22T08:47:28.984Z,22.67
2023-04-22T08:49:57.163Z,23.30
2023-04-22T08:52:28.195Z,23.63
2023-04-22T08:54:57.792Z,24.25
2023-04-22T08:57:26.933Z,24.89
2023-04-22T08:59:56.308Z,26.06
2023-04-22T09:02:25.949Z,27.21
2023-04-22T09:04:55.234Z,27.63
2023-04-22T09:07:25.246Z,27.04
2023-04-22T09:09:54.295Z,26.05
2023-04-22T09:12:24.092Z,24.95
2023-04-22T09:14:52.572Z,24.21
2023-04-22T09:17:32.036Z,23.50
2023-04-22T09:20:00.929Z,23.01
2023-04-22T09:22:29.679Z,23.34
2023-04-22T09:24:57.989Z,23.55
2023-04-22T09:27:27.439Z,23.66
2023-04-22T09:29:55.833Z,23.58
2023-04-22T09:32:26.173Z,24.72
2023-04-22T09:34:55.983Z,24.70
2023-04-22T09:37:35.873Z,24.44
2023-04-22T09:40:16.540Z,25.30
2023-04-22T09:42:51.173Z,25.72
2023-04-22T09:45:33.140Z,26.85
2023-04-22T09:48:03.170Z,27.57
2023-04-22T09:50:31.288Z,28.55
2023-04-22T09:53:02.432Z,29.14
2023-04-22T09:55:35.675Z,29.92
2023-04-22T09:58:09.914Z,28.96
2023-04-22T10:00:42.500Z,28.81
2023-04-22T10:03:11.210Z,30.04
2023-04-22T10:05:39.767Z,29.34
2023-04-22T10:08:09.074Z,29.99
2023-04-22T10:10:38.226Z,30.02
2023-04-22T10:13:08.160Z,30.50
2023-04-22T10:15:37.754Z,30.02
2023-04-22T10:18:09.692Z,30.13
2023-04-22T10:20:40.239Z,30.63
2023-04-22T10:23:14.692Z,30.17
2023-04-22T10:25:43.170Z,30.38
2023-04-22T10:28:13.598Z,30.87
2023-04-22T10:30:41.580Z,31.14
2023-04-22T10:33:39.244Z,30.84
2023-04-22T10:36:09.477Z,30.72
2023-04-22T10:38:38.130Z,31.54
2023-04-22T10:41:08.375Z,31.20
2023-04-22T10:43:45.401Z,30.70
2023-04-22T10:46:53.295Z,31.91
2023-04-22T10:49:22.406Z,31.73
2023-04-22T10:51:51.802Z,31.40
2023-04-22T10:54:56.941Z,31.27
2023-04-22T10:57:37.763Z,31.63
2023-04-22T11:00:23.075Z,31.68
2023-04-22T11:02:54.433Z,31.67
2023-04-22T11:05:26.265Z,31.53
2023-04-22T11:07:55.949Z,32.28
2023-04-22T11:10:43.081Z,32.31
2023-04-22T11:13:13.992Z,32.76
2023-04-22T11:15:44.870Z,32.83
2023-04-22T11:18:20.613Z,32.91
2023-04-22T11:20:50.001Z,33.33
2023-04-22T11:23:23.569Z,33.13
2023-04-22T11:25:56.091Z,33.57
2023-04-22T11:28:24.219Z,33.60
2023-04-22T11:30:54.490Z,33.86
2023-04-22T11:33:22.536Z,33.76
2023-04-22T11:35:51.698Z,33.54
2023-04-22T11:38:19.770Z,33.61
2023-04-22T11:40:48.615Z,33.62
2023-04-22T11:43:18.912Z,33.53
2023-04-22T11:45:47.069Z,33.29
2023-04-22T11:48:17.107Z,33.52
2023-04-22T11:50:45.563Z,33.49
2023-04-22T11:53:17.972Z,33.67
2023-04-22T11:55:47.547Z,33.45
2023-04-22T11:58:17.709Z,33.17
2023-04-22T12:00:47.602Z,32.87
2023-04-22T12:03:20.832Z,33.10
2023-04-22T12:05:55.476Z,33.18
2023-04-22T12:08:25.093Z,32.97
2023-04-22T12:10:55.170Z,32.89
2023-04-22T12:13:25.322Z,33.34
2023-04-22T12:15:56.761Z,33.21
2023-04-22T12:18:34.087Z,33.53
2023-04-22T12:21:03.652Z,33.03
2023-04-22T12:23:42.225Z,33.40
2023-04-22T12:26:10.529Z,33.27
2023-04-22T12:28:39.198Z,33.25
2023-04-22T12:31:07.546Z,33.63
2023-04-22T12:33:38.359Z,33.87
2023-04-22T12:36:06.996Z,33.86
2023-04-22T12:38:35.295Z,33.72
2023-04-22T12:41:07.571Z,33.79
2023-04-22T12:43:36.830Z,33.90
2023-04-22T12:46:05.871Z,33.71
2023-04-22T12:48:34.552Z,33.58
2023-04-22T12:51:04.316Z,33.55
2023-04-22T12:53:35.533Z,33.53
2023-04-22T12:56:03.585Z,33.53
2023-04-22T12:58:34.986Z,33.68
2023-04-22T13:01:02.969Z,33.42
2023-04-22T13:03:31.650Z,33.54
2023-04-22T13:06:00.175Z,33.09
2023-04-22T13:08:34.130Z,32.86
2023-04-22T13:11:02.564Z,32.67
2023-04-22T13:13:31.402Z,33.10
2023-04-22T13:15:59.494Z,32.57
2023-04-22T13:18:27.590Z,32.36
2023-04-22T13:20:56.874Z,32.66
2023-04-22T13:23:25.974Z,32.26
2023-04-22T13:25:55.649Z,32.54
2023-04-22T13:28:23.571Z,32.19
2023-04-22T13:30:51.586Z,32.20
2023-04-22T13:33:19.611Z,32.55
2023-04-22T13:35:47.614Z,32.42
2023-04-22T13:38:15.616Z,32.10
2023-04-22T13:40:43.653Z,32.18
2023-04-22T13:43:13.388Z,32.28
2023-04-22T13:45:42.343Z,32.26
2023-04-22T13:48:10.443Z,32.22
2023-04-22T13:50:40.696Z,32.48
2023-04-22T13:53:10.612Z,32.01
2023-04-22T13:55:38.704Z,32.05
2023-04-22T13:58:06.743Z,32.29
2023-04-22T14:00:36.733Z,32.35
2023-04-22T14:03:04.930Z,31.92
2023-04-22T14:05:33.113Z,31.85
2023-04-22T14:08:01.227Z,32.03
2023-04-22T14:10:34.934Z,31.76
2023-04-22T14:13:03.087Z,31.83
2023-04-22T14:15:31.652Z,31.67
2023-04-22T14:18:01.068Z,32.09
2023-04-22T14:20:29.037Z,31.83
2023-04-22T14:22:57.152Z,32.05
2023-04-22T14:25:25.239Z,31.36
2023-04-22T14:27:54.016Z,31.64
2023-04-22T14:30:22.028Z,31.76
2023-04-22T14:32:52.876Z,32.10
2023-04-22T14:35:22.766Z,32.31
2023-04-22T14:37:50.849Z,32.43
2023-04-22T14:40:20.091Z,32.48
2023-04-22T14:42:48.119Z,32.44
2023-04-22T14:45:16.204Z,32.52
2023-04-22T14:47:44.174Z,32.77
2023-04-22T14:50:12.600Z,32.33
2023-04-22T14:52:42.014Z,32.62
2023-04-22T14:55:21.805Z,32.67
2023-04-22T14:57:52.297Z,32.58
2023-04-22T15:00:20.570Z,32.75
2023-04-22T15:02:48.745Z,32.96
2023-04-22T15:05:19.235Z,33.28
2023-04-22T15:07:48.754Z,33.25
2023-04-22T15:10:17.755Z,33.12
2023-04-22T15:12:46.085Z,33.27
2023-04-22T15:15:16.043Z,33.13
2023-04-22T15:17:45.016Z,32.98
2023-04-22T15:20:13.900Z,33.13
2023-04-22T15:22:42.166Z,32.79
2023-04-22T15:25:12.265Z,32.70
2023-04-22T15:27:40.874Z,32.74
2023-04-22T15:30:10.949Z,32.69
2023-04-22T15:32:40.203Z,32.62
2023-04-22T15:35:09.597Z,32.88
2023-04-22T15:37:37.632Z,32.76
2023-04-22T15:40:07.086Z,32.95
2023-04-22T15:42:37.516Z,33.14
2023-04-22T15:45:06.897Z,33.17
2023-04-22T15:47:36.228Z,33.08
2023-04-22T15:50:09.066Z,33.30
2023-04-22T15:52:39.001Z,33.86
2023-04-22T15:55:08.015Z,34.12
2023-04-22T15:57:37.415Z,34.05
2023-04-22T16:00:11.753Z,33.91
2023-04-22T16:02:40.740Z,34.11
2023-04-22T16:05:09.481Z,34.11
2023-04-22T16:07:37.453Z,34.10
2023-04-22T16:10:06.422Z,34.28
2023-04-22T16:12:34.708Z,34.55
2023-04-22T16:15:04.354Z,34.11
2023-04-22T16:17:33.066Z,34.15
2023-04-22T16:20:01.476Z,34.20
2023-04-22T16:22:30.213Z,34.17
2023-04-22T16:24:58.219Z,34.44
2023-04-22T16:27:26.278Z,34.17
2023-04-22T16:29:54.346Z,34.41
2023-04-22T16:32:23.837Z,34.20
2023-04-22T16:34:51.791Z,34.47
2023-04-22T16:37:19.681Z,34.47
2023-04-22T16:39:47.670Z,34.38
2023-04-22T16:42:15.877Z,34.46
2023-04-22T16:44:44.255Z,34.62
2023-04-22T16:47:12.225Z,34.50
2023-04-22T16:49:41.818Z,34.53
2023-04-22T16:52:10.099Z,34.74
2023-04-22T16:54:37.986Z,35.70
2023-04-22T16:57:07.607Z,35.43
2023-04-22T16:59:35.851Z,35.03
2023-04-22T17:02:05.799Z,35.12
2023-04-22T17:04:34.042Z,35.39
2023-04-22T17:07:03.818Z,35.57
2023-04-22T17:09:33.144Z,35.83
2023-04-22T17:12:01.751Z,35.68
2023-04-22T17:14:30.376Z,35.95
2023-04-22T17:16:58.373Z,36.19
2023-04-22T17:19:28.011Z,36.47
2023-04-22T17:21:56.067Z,36.69
2023-04-22T17:24:25.664Z,36.66
2023-04-22T17:26:53.923Z,36.96
2023-04-22T17:29:21.987Z,37.03
2023-04-22T17:31:50.539Z,37.11
2023-04-22T17:34:18.740Z,37.12
2023-04-22T17:36:46.848Z,37.34
2023-04-22T17:39:15.406Z,37.71
2023-04-22T17:41:45.225Z,37.45
2023-04-22T17:44:13.273Z,37.50
2023-04-22T17:46:41.841Z,37.55
2023-04-22T17:49:09.989Z,37.46
2023-04-22T17:51:38.559Z,37.58
2023-04-22T17:54:07.097Z,37.63
2023-04-22T17:56:35.560Z,37.72
2023-04-22T17:59:08.152Z,37.86
2023-04-22T18:01:36.623Z,37.89
2023-04-22T18:04:05.065Z,38.00
2023-04-22T18:06:33.123Z,37.87
2023-04-22T18:09:04.322Z,37.93
2023-04-22T18:11:34.272Z,37.81
2023-04-22T18:14:02.486Z,37.94
2023-04-22T18:16:33.458Z,37.91
2023-04-22T18:19:02.745Z,38.02
2023-04-22T18:21:33.889Z,38.39
2023-04-22T18:24:03.194Z,38.37
2023-04-22T18:26:34.222Z,38.17
2023-04-22T18:29:02.360Z,38.34
2023-04-22T18:31:35.828Z,38.71
2023-04-22T18:34:04.348Z,38.88
2023-04-22T18:36:35.645Z,38.73
2023-04-22T18:39:05.620Z,38.86
2023-04-22T18:41:38.089Z,38.77
2023-04-22T18:44:06.313Z,39.01
2023-04-22T18:46:35.947Z,39.16
2023-04-22T18:49:04.192Z,39.24
2023-04-22T18:51:33.548Z,39.44
2023-04-22T18:54:01.797Z,39.34
2023-04-22T18:56:31.550Z,39.36
2023-04-22T18:59:00.002Z,39.28
2023-04-22T19:01:28.434Z,39.59
2023-04-22T19:03:58.001Z,39.25
2023-04-22T19:06:27.347Z,39.44
2023-04-22T19:08:55.537Z,39.57
2023-04-22T19:11:23.818Z,39.60
2023-04-22T19:13:53.708Z,39.50
2023-04-22T19:16:24.271Z,39.49
2023-04-22T19:18:53.922Z,39.45
2023-04-22T19:21:23.338Z,39.57
2023-04-22T19:23:52.978Z,39.67
2023-04-22T19:26:22.083Z,39.45
2023-04-22T19:28:50.222Z,39.46
2023-04-22T19:31:18.753Z,39.70
2023-04-22T19:33:46.990Z,39.78
2023-04-22T19:36:15.157Z,39.76
2023-04-22T19:38:47.350Z,39.79
2023-04-22T19:41:15.559Z,39.90
2023-04-22T19:43:43.836Z,40.20
2023-04-22T19:46:16.325Z,40.21
2023-04-22T19:48:44.828Z,40.34
2023-04-22T19:51:13.070Z,40.38
2023-04-22T19:53:42.267Z,40.40
2023-04-22T19:56:12.159Z,40.69
2023-04-22T19:58:40.972Z,40.72
2023-04-22T20:01:09.314Z,40.67
2023-04-22T20:03:38.408Z,40.64
2023-04-22T20:06:07.288Z,40.94
2023-04-22T20:08:36.545Z,41.16
2023-04-22T20:11:05.027Z,41.32
2023-04-22T20:13:35.485Z,42.44
2023-04-22T20:16:04.398Z,44.35
2023-04-22T20:18:36.518Z,45.46
2023-04-22T20:21:09.021Z,46.26
2023-04-22T20:23:39.676Z,46.97
2023-04-22T20:26:08.332Z,47.76
2023-04-22T20:28:45.285Z,49.61
2023-04-22T20:31:13.813Z,48.95
2023-04-22T20:33:42.276Z,50.13
2023-04-22T20:36:11.722Z,50.06
2023-04-22T20:38:39.814Z,50.35
2023-04-22T20:41:28.814Z,50.75
2023-04-22T20:43:58.196Z,51.30
2023-04-22T20:46:26.389Z,51.23
2023-04-22T20:48:57.243Z,51.70
2023-04-22T20:51:25.274Z,52.01
2023-04-22T20:53:56.831Z,52.14
2023-04-22T20:56:25.441Z,52.02
2023-04-22T20:59:00.740Z,52.33
2023-04-22T21:01:33.923Z,52.34
2023-04-22T21:04:06.411Z,52.59
2023-04-22T21:06:35.109Z,53.42
2023-04-22T21:09:10.787Z,53.38
2023-04-22T21:11:39.628Z,53.08
2023-04-22T21:14:09.484Z,53.32
2023-04-22T21:16:41.635Z,53.38
2023-04-22T21:19:10.415Z,53.87
2023-04-22T21:21:40.056Z,53.83
2023-04-22T21:24:09.787Z,54.45
2023-04-22T21:26:40.362Z,54.42
2023-04-22T21:29:11.207Z,55.34
2023-04-22T21:31:39.595Z,55.41
2023-04-22T21:34:09.827Z,56.15
2023-04-22T21:36:38.252Z,58.18
2023-04-22T21:39:07.040Z,57.74
2023-04-22T21:41:35.464Z,58.23
2023-04-22T21:44:03.736Z,58.40
2023-04-22T21:46:33.137Z,58.61
2023-04-22T21:49:01.370Z,59.27
2023-04-22T21:51:31.613Z,59.63
2023-04-22T21:53:59.946Z,59.98
2023-04-22T21:56:28.061Z,60.06
2023-04-22T21:58:56.195Z,60.42
2023-04-22T22:01:25.836Z,60.59
2023-04-22T22:03:55.794Z,60.81
2023-04-22T22:06:24.188Z,60.79
2023-04-22T22:08:53.443Z,60.77
2023-04-22T22:13:52.238Z,61.18
2023-04-22T22:16:20.340Z,61.55
2023-04-22T22:18:50.021Z,61.74
2023-04-22T22:21:19.426Z,62.60
2023-04-22T22:23:47.294Z,62.51
2023-04-22T22:26:15.387Z,63.31
2023-04-22T22:28:43.378Z,63.37
2023-04-22T22:31:11.329Z,63.43
2023-04-22T22:33:39.362Z,63.73
2023-04-22T22:36:08.679Z,64.55
2023-04-22T22:38:38.385Z,64.55
2023-04-22T22:41:06.391Z,65.24
2023-04-22T22:43:34.579Z,66.18
2023-04-22T22:46:05.790Z,66.73
2023-04-22T22:48:34.599Z,68.00
2023-04-22T22:51:05.343Z,68.38
2023-04-22T22:53:36.432Z,68.68
2023-04-22T22:56:07.833Z,69.87
2023-04-22T22:58:36.718Z,70.01
2023-04-22T23:01:05.122Z,70.84
2023-04-22T23:03:33.560Z,72.03
2023-04-22T23:06:04.143Z,72.10
2023-04-22T23:08:32.344Z,71.82
2023-04-22T23:11:02.156Z,71.83
2023-04-22T23:13:31.643Z,71.81
2023-04-22T23:16:00.672Z,70.59
2023-04-22T23:18:29.787Z,70.84
2023-04-22T23:21:00.423Z,70.90
2023-04-22T23:23:29.839Z,70.82
2023-04-22T23:26:00.861Z,70.98
2023-04-22T23:28:29.505Z,70.74
2023-04-22T23:30:59.095Z,70.76
2023-04-22T23:33:27.622Z,71.72
2023-04-22T23:35:57.610Z,73.31
2023-04-22T23:38:25.736Z,72.45
2023-04-22T23:40:53.784Z,71.90
2023-04-22T23:43:21.770Z,71.60
2023-04-22T23:45:49.985Z,72.89
2023-04-22T23:48:20.729Z,73.41
2023-04-22T23:50:48.628Z,74.08
2023-04-22T23:53:16.845Z,72.48
2023-04-22T23:55:48.732Z,72.70
2023-04-22T23:58:17.105Z,72.42
